createdAt,value
2023-02-14T00:00:53.014Z,93.33
2023-02-14T00:01:53.019Z,93.23
2023-02-14T00:02:53.054Z,93.44
2023-02-14T00:03:52.996Z,93.85
2023-02-14T00:04:53.041Z,93.85
2023-02-14T00:05:52.979Z,93.90
2023-02-14T00:06:52.960Z,93.90
2023-02-14T00:07:52.997Z,93.70
2023-02-14T00:08:52.949Z,93.90
2023-02-14T00:09:52.932Z,94.01
2023-02-14T00:10:52.909Z,94.01
2023-02-14T00:11:52.915Z,93.90
2023-02-14T00:12:52.890Z,94.53
2023-02-14T00:13:52.900Z,94.67
2023-02-14T00:14:52.865Z,94.88
2023-02-14T00:15:52.889Z,95.09
2023-02-14T00:16:52.849Z,95.29
2023-02-14T00:17:52.845Z,95.50
2023-02-14T00:18:52.838Z,95.50
2023-02-14T00:19:52.822Z,95.81
2023-02-14T00:20:52.807Z,95.92
2023-02-14T00:21:52.809Z,96.02
2023-02-14T00:22:52.790Z,96.02
2023-02-14T00:23:52.799Z,96.33
2023-02-14T00:24:52.750Z,96.54
2023-02-14T00:25:52.748Z,96.64
2023-02-14T00:26:52.744Z,96.54
2023-02-14T00:27:52.731Z,96.64
2023-02-14T00:28:52.730Z,96.54
2023-02-14T00:29:52.748Z,96.64
2023-02-14T00:30:52.734Z,96.54
2023-02-14T00:31:52.740Z,96.64
2023-02-14T00:32:52.672Z,96.85
2023-02-14T00:33:52.673Z,96.95
2023-02-14T00:34:52.659Z,96.95
2023-02-14T00:35:52.651Z,96.95
2023-02-14T00:36:52.632Z,97.16
2023-02-14T00:37:52.621Z,97.37
2023-02-14T00:38:52.631Z,97.58
2023-02-14T00:39:52.600Z,97.58
2023-02-14T00:40:52.580Z,97.58
2023-02-14T00:41:52.584Z,97.83
2023-02-14T00:42:52.569Z,97.93
2023-02-14T00:43:52.572Z,98.03
2023-02-14T00:44:52.571Z,97.93
2023-02-14T00:45:52.554Z,98.03
2023-02-14T00:46:52.528Z,98.24
2023-02-14T00:47:52.529Z,98.35
2023-02-14T00:48:52.508Z,98.35
2023-02-14T00:49:52.508Z,98.35
2023-02-14T00:50:52.491Z,98.24
2023-02-14T00:51:52.473Z,98.24
2023-02-14T00:52:52.461Z,98.24
2023-02-14T00:53:52.462Z,98.24
2023-02-14T00:54:52.430Z,98.35
2023-02-14T00:55:52.431Z,98.45
2023-02-14T00:56:52.411Z,98.45
2023-02-14T00:57:52.413Z,98.45
2023-02-14T00:58:52.403Z,98.76
2023-02-14T00:59:52.386Z,98.86
2023-02-14T01:00:52.399Z,98.86
2023-02-14T01:01:52.360Z,98.66
2023-02-14T01:02:52.409Z,98.50
2023-02-14T01:03:52.367Z,98.60
2023-02-14T01:04:52.325Z,98.66
2023-02-14T01:05:52.323Z,98.45
2023-02-14T01:06:52.309Z,98.45
2023-02-14T01:07:52.302Z,98.24
2023-02-14T01:08:52.297Z,98.14
2023-02-14T01:09:52.273Z,97.93
2023-02-14T01:10:52.253Z,97.72
2023-02-14T01:11:52.251Z,97.62
2023-02-14T01:12:52.232Z,97.31
2023-02-14T01:13:52.254Z,97.20
2023-02-14T01:14:52.212Z,97.06
2023-02-14T01:15:52.207Z,96.95
2023-02-14T01:16:52.256Z,96.64
2023-02-14T01:17:52.181Z,96.64
2023-02-14T01:18:52.181Z,96.54
2023-02-14T01:19:52.163Z,96.33
2023-02-14T01:20:52.152Z,96.23
2023-02-14T01:21:52.139Z,96.12
2023-02-14T01:22:52.132Z,96.23
2023-02-14T01:23:52.145Z,95.92
2023-02-14T01:24:52.103Z,95.71
2023-02-14T01:25:52.090Z,95.81
2023-02-14T01:26:52.096Z,95.71
2023-02-14T01:27:52.062Z,95.71
2023-02-14T01:28:52.075Z,95.50
2023-02-14T01:29:52.094Z,95.50
2023-02-14T01:30:52.145Z,95.61
2023-02-14T01:31:52.092Z,95.71
2023-02-14T01:32:52.020Z,95.61
2023-02-14T01:33:52.015Z,95.71
2023-02-14T01:34:52.003Z,95.75
2023-02-14T01:35:51.984Z,95.75
2023-02-14T01:36:51.980Z,95.75
2023-02-14T01:37:51.968Z,95.96
2023-02-14T01:38:51.974Z,96.17
2023-02-14T01:39:51.937Z,96.37
2023-02-14T01:40:51.925Z,96.48
2023-02-14T01:41:51.921Z,96.58
2023-02-14T01:42:51.908Z,96.73
2023-02-14T01:43:51.912Z,96.83
2023-02-14T01:44:51.889Z,97.10
2023-02-14T01:45:51.899Z,97.00
2023-02-14T01:46:51.874Z,96.89
2023-02-14T01:47:51.858Z,96.94
2023-02-14T01:48:51.849Z,96.94
2023-02-14T01:49:51.839Z,96.94
2023-02-14T01:50:51.820Z,96.94
2023-02-14T01:51:51.859Z,97.14
2023-02-14T01:52:51.810Z,97.25
2023-02-14T01:53:51.816Z,97.35
2023-02-14T01:54:51.788Z,97.56
2023-02-14T01:55:51.778Z,97.67
2023-02-14T01:56:51.774Z,97.67
2023-02-14T01:57:51.740Z,97.77
2023-02-14T01:58:51.749Z,97.88
2023-02-14T01:59:51.729Z,97.98
2023-02-14T02:00:51.737Z,97.98
2023-02-14T02:01:51.762Z,98.08
2023-02-14T02:02:51.695Z,98.08
2023-02-14T02:03:51.685Z,98.08
2023-02-14T02:04:51.671Z,97.98
2023-02-14T02:05:51.663Z,98.08
2023-02-14T02:06:51.643Z,98.19
2023-02-14T02:07:51.651Z,98.19
2023-02-14T02:08:51.651Z,98.19
2023-02-14T02:09:51.611Z,98.08
2023-02-14T02:10:51.610Z,97.98
2023-02-14T02:11:51.604Z,98.19
2023-02-14T02:12:51.581Z,97.98
2023-02-14T02:13:51.575Z,97.98
2023-02-14T02:14:51.582Z,97.98
2023-02-14T02:15:51.546Z,97.98
2023-02-14T02:16:51.600Z,98.08
2023-02-14T02:17:51.522Z,98.08
2023-02-14T02:18:51.512Z,97.88
2023-02-14T02:19:51.536Z,97.88
2023-02-14T02:20:51.492Z,97.98
2023-02-14T02:21:51.473Z,97.88
2023-02-14T02:22:51.473Z,97.77
2023-02-14T02:23:51.465Z,97.56
2023-02-14T02:24:51.462Z,97.56
2023-02-14T02:25:51.436Z,97.45
2023-02-14T02:26:51.437Z,97.35
2023-02-14T02:27:51.417Z,97.45
2023-02-14T02:28:51.431Z,97.35
2023-02-14T02:29:51.435Z,97.35
2023-02-14T02:30:51.497Z,97.14
2023-02-14T02:31:51.481Z,97.09
2023-02-14T02:32:51.364Z,97.19
2023-02-14T02:33:51.357Z,96.98
2023-02-14T02:34:51.341Z,96.78
2023-02-14T02:35:51.323Z,96.88
2023-02-14T02:36:51.330Z,97.09
2023-02-14T02:37:51.304Z,97.40
2023-02-14T02:38:51.321Z,97.50
2023-02-14T02:39:51.288Z,97.50
2023-02-14T02:40:51.274Z,97.61
2023-02-14T02:41:51.255Z,97.71
2023-02-14T02:42:51.244Z,97.71
2023-02-14T02:43:51.262Z,97.61
2023-02-14T02:44:51.245Z,97.61
2023-02-14T02:45:51.274Z,97.61
2023-02-14T02:46:51.215Z,97.61
2023-02-14T02:47:51.212Z,97.61
2023-02-14T02:48:51.184Z,97.75
2023-02-14T02:49:51.194Z,97.75
2023-02-14T02:50:51.175Z,97.86
2023-02-14T02:51:51.152Z,97.96
2023-02-14T02:52:51.145Z,97.96
2023-02-14T02:53:51.139Z,97.96
2023-02-14T02:54:51.131Z,97.96
2023-02-14T02:55:51.116Z,97.86
2023-02-14T02:56:51.126Z,97.86
2023-02-14T02:57:51.092Z,97.96
2023-02-14T02:58:51.169Z,97.86
2023-02-14T02:59:51.082Z,97.86
2023-02-14T03:00:51.067Z,97.75
2023-02-14T03:01:51.085Z,97.75
2023-02-14T03:02:51.034Z,97.75
2023-02-14T03:03:51.038Z,97.55
2023-02-14T03:04:51.055Z,97.70
2023-02-14T03:05:51.009Z,97.65
2023-02-14T03:06:50.995Z,97.65
2023-02-14T03:07:50.993Z,97.59
2023-02-14T03:08:50.975Z,97.70
2023-02-14T03:09:50.973Z,97.70
2023-02-14T03:10:50.953Z,97.80
2023-02-14T03:11:50.946Z,97.80
2023-02-14T03:12:50.991Z,97.75
2023-02-14T03:13:50.958Z,97.91
2023-02-14T03:14:50.938Z,97.91
2023-02-14T03:15:50.922Z,97.96
2023-02-14T03:16:50.886Z,98.07
2023-02-14T03:17:50.885Z,98.27
2023-02-14T03:18:50.870Z,98.17
2023-02-14T03:19:50.883Z,98.48
2023-02-14T03:20:50.847Z,98.48
2023-02-14T03:21:50.842Z,98.38
2023-02-14T03:22:50.848Z,98.38
2023-02-14T03:23:50.829Z,98.38
2023-02-14T03:24:50.816Z,98.48
2023-02-14T03:25:50.801Z,98.59
2023-02-14T03:26:50.787Z,98.48
2023-02-14T03:27:50.780Z,98.48
2023-02-14T03:28:50.766Z,98.38
2023-02-14T03:29:50.784Z,98.48
2023-02-14T03:30:50.869Z,98.27
2023-02-14T03:31:50.849Z,98.27
2023-02-14T03:32:50.717Z,98.27
2023-02-14T03:33:50.713Z,98.17
2023-02-14T03:34:50.708Z,98.23
2023-02-14T03:35:50.722Z,98.13
2023-02-14T03:36:50.675Z,98.13
2023-02-14T03:37:50.684Z,98.13
2023-02-14T03:38:50.657Z,97.81
2023-02-14T03:39:50.657Z,97.92
2023-02-14T03:40:50.639Z,97.71
2023-02-14T03:41:50.636Z,97.61
2023-02-14T03:42:50.608Z,97.50
2023-02-14T03:43:50.608Z,97.61
2023-02-14T03:44:50.636Z,97.71
2023-02-14T03:45:50.588Z,97.71
2023-02-14T03:46:50.569Z,97.81
2023-02-14T03:47:50.566Z,97.81
2023-02-14T03:48:50.554Z,97.71
2023-02-14T03:49:50.567Z,97.71
2023-02-14T03:50:50.530Z,97.71
2023-02-14T03:51:50.520Z,97.81
2023-02-14T03:52:50.510Z,97.81
2023-02-14T03:53:50.508Z,97.77
2023-02-14T03:54:50.503Z,97.61
2023-02-14T03:55:50.500Z,97.50
2023-02-14T03:56:50.472Z,97.71
2023-02-14T03:57:50.448Z,97.56
2023-02-14T03:58:50.448Z,97.56
2023-02-14T03:59:50.428Z,97.45
2023-02-14T04:00:50.427Z,97.35
2023-02-14T04:01:50.447Z,97.40
2023-02-14T04:02:50.408Z,97.30
2023-02-14T04:03:50.450Z,97.30
2023-02-14T04:04:50.414Z,97.30
2023-02-14T04:05:50.367Z,97.30
2023-02-14T04:06:50.360Z,97.30
2023-02-14T04:07:50.347Z,97.30
2023-02-14T04:08:50.337Z,97.30
2023-02-14T04:09:50.339Z,97.35
2023-02-14T04:10:50.318Z,97.25
2023-02-14T04:11:50.357Z,97.25
2023-02-14T04:12:50.297Z,97.14
2023-02-14T04:13:50.278Z,97.04
2023-02-14T04:14:50.292Z,96.94
2023-02-14T04:15:50.372Z,96.94
2023-02-14T04:16:50.249Z,96.94
2023-02-14T04:17:50.253Z,97.04
2023-02-14T04:18:50.373Z,96.94
2023-02-14T04:19:50.228Z,96.94
2023-02-14T04:20:50.207Z,96.94
2023-02-14T04:21:50.206Z,97.04
2023-02-14T04:22:50.179Z,97.04
2023-02-14T04:23:50.180Z,97.04
2023-02-14T04:24:50.177Z,96.94
2023-02-14T04:25:50.168Z,97.04
2023-02-14T04:26:50.151Z,97.04
2023-02-14T04:27:50.140Z,96.94
2023-02-14T04:28:50.128Z,96.94
2023-02-14T04:29:50.250Z,97.14
2023-02-14T04:30:50.161Z,97.04
2023-02-14T04:31:50.267Z,97.04
2023-02-14T04:32:50.080Z,96.94
2023-02-14T04:33:50.169Z,96.83
2023-02-14T04:34:50.071Z,96.73
2023-02-14T04:35:50.049Z,96.88
2023-02-14T04:36:50.038Z,96.98
2023-02-14T04:37:50.035Z,97.09
2023-02-14T04:38:50.008Z,97.09
2023-02-14T04:39:50.034Z,97.19
2023-02-14T04:40:49.997Z,97.19
2023-02-14T04:41:49.986Z,97.30
2023-02-14T04:42:49.968Z,97.40
2023-02-14T04:43:49.969Z,97.40
2023-02-14T04:44:50.153Z,97.40
2023-02-14T04:45:50.214Z,97.40
2023-02-14T04:46:50.262Z,97.71
2023-02-14T04:47:49.918Z,97.61
2023-02-14T04:48:49.900Z,97.61
2023-02-14T04:49:49.907Z,97.61
2023-02-14T04:50:49.882Z,97.71
2023-02-14T04:51:49.878Z,97.61
2023-02-14T04:52:49.859Z,97.71
2023-02-14T04:53:49.872Z,97.81
2023-02-14T04:54:49.849Z,97.71
2023-02-14T04:55:49.865Z,97.71
2023-02-14T04:56:49.830Z,97.81
2023-02-14T04:57:49.809Z,97.92
2023-02-14T04:58:49.799Z,98.02
2023-02-14T04:59:49.789Z,98.13
2023-02-14T05:00:49.805Z,98.02
2023-02-14T05:01:49.929Z,98.13
2023-02-14T05:02:49.758Z,98.23
2023-02-14T05:03:49.750Z,98.23
2023-02-14T05:04:49.955Z,98.13
2023-02-14T05:05:49.725Z,98.02
2023-02-14T05:06:49.721Z,98.13
2023-02-14T05:07:49.704Z,98.13
2023-02-14T05:08:49.689Z,98.23
2023-02-14T05:09:49.677Z,98.23
2023-02-14T05:10:49.675Z,98.23
2023-02-14T05:11:49.673Z,98.13
2023-02-14T05:12:49.646Z,98.13
2023-02-14T05:13:49.655Z,97.88
2023-02-14T05:14:49.638Z,97.88
2023-02-14T05:15:49.618Z,97.88
2023-02-14T05:16:49.631Z,97.88
2023-02-14T05:17:49.596Z,97.71
2023-02-14T05:18:49.578Z,97.71
2023-02-14T05:19:49.583Z,97.81
2023-02-14T05:20:49.557Z,97.71
2023-02-14T05:21:49.576Z,97.71
2023-02-14T05:22:49.542Z,97.77
2023-02-14T05:23:49.529Z,97.67
2023-02-14T05:24:49.527Z,97.67
2023-02-14T05:25:49.509Z,97.56
2023-02-14T05:26:49.518Z,97.56
2023-02-14T05:27:49.487Z,97.45
2023-02-14T05:28:49.479Z,97.50
2023-02-14T05:29:49.545Z,97.50
2023-02-14T05:30:49.458Z,97.40
2023-02-14T05:31:49.529Z,97.40
2023-02-14T05:32:49.427Z,97.40
2023-02-14T05:33:49.418Z,97.30
2023-02-14T05:34:49.420Z,97.19
2023-02-14T05:35:49.399Z,97.30
2023-02-14T05:36:49.379Z,97.30
2023-02-14T05:37:49.379Z,97.40
2023-02-14T05:38:49.367Z,97.40
2023-02-14T05:39:49.362Z,97.40
2023-02-14T05:40:49.345Z,97.30
2023-02-14T05:41:49.345Z,97.40
2023-02-14T05:42:49.320Z,97.30
2023-02-14T05:43:49.337Z,97.30
2023-02-14T05:44:49.322Z,97.40
2023-02-14T05:45:49.342Z,97.40
2023-02-14T05:46:49.282Z,97.30
2023-02-14T05:47:49.310Z,97.24
2023-02-14T05:48:49.249Z,97.13
2023-02-14T05:49:49.264Z,97.24
2023-02-14T05:50:49.229Z,97.44
2023-02-14T05:51:49.220Z,97.55
2023-02-14T05:52:49.212Z,97.65
2023-02-14T05:53:49.201Z,97.65
2023-02-14T05:54:49.192Z,97.55
2023-02-14T05:55:49.182Z,97.65
2023-02-14T05:56:49.172Z,97.75
2023-02-14T05:57:49.171Z,97.75
2023-02-14T05:58:49.155Z,97.86
2023-02-14T05:59:49.163Z,98.07
2023-02-14T06:00:49.133Z,98.07
2023-02-14T06:01:49.151Z,98.17
2023-02-14T06:02:49.113Z,98.17
2023-02-14T06:03:49.123Z,98.27
2023-02-14T06:04:49.183Z,98.27
2023-02-14T06:05:49.083Z,98.27
2023-02-14T06:06:49.065Z,98.27
2023-02-14T06:07:49.065Z,98.17
2023-02-14T06:08:49.042Z,98.07
2023-02-14T06:09:49.047Z,98.07
2023-02-14T06:10:49.027Z,98.17
2023-02-14T06:11:49.016Z,98.17
2023-02-14T06:12:49.021Z,98.17
2023-02-14T06:13:49.009Z,98.17
2023-02-14T06:14:49.227Z,98.27
2023-02-14T06:15:48.976Z,98.17
2023-02-14T06:16:49.151Z,98.07
2023-02-14T06:17:48.970Z,98.11
2023-02-14T06:18:48.937Z,98.01
2023-02-14T06:19:48.946Z,98.27
2023-02-14T06:20:48.918Z,98.07
2023-02-14T06:21:48.915Z,97.96
2023-02-14T06:22:48.897Z,97.96
2023-02-14T06:23:48.889Z,97.86
2023-02-14T06:24:48.878Z,97.86
2023-02-14T06:25:48.877Z,97.96
2023-02-14T06:26:48.861Z,97.96
2023-02-14T06:27:49.424Z,97.96
2023-02-14T06:28:48.840Z,97.86
2023-02-14T06:29:48.847Z,97.96
2023-02-14T06:30:48.892Z,97.86
2023-02-14T06:31:48.926Z,97.91
2023-02-14T06:32:48.801Z,97.80
2023-02-14T06:33:48.786Z,97.80
2023-02-14T06:34:48.796Z,97.80
2023-02-14T06:35:48.773Z,97.70
2023-02-14T06:36:48.748Z,97.70
2023-02-14T06:37:48.791Z,97.70
2023-02-14T06:38:48.741Z,97.70
2023-02-14T06:39:48.728Z,97.91
2023-02-14T06:40:48.708Z,97.91
2023-02-14T06:41:48.698Z,98.11
2023-02-14T06:42:48.685Z,98.32
2023-02-14T06:43:48.835Z,98.43
2023-02-14T06:44:48.688Z,98.43
2023-02-14T06:45:48.720Z,98.32
2023-02-14T06:46:48.650Z,98.32
2023-02-14T06:47:48.639Z,98.43
2023-02-14T06:48:48.619Z,98.53
2023-02-14T06:49:48.630Z,98.53
2023-02-14T06:50:48.599Z,98.63
2023-02-14T06:51:48.600Z,98.53
2023-02-14T06:52:48.581Z,98.53
2023-02-14T06:53:48.580Z,98.53
2023-02-14T06:54:48.590Z,98.53
2023-02-14T06:55:48.570Z,98.43
2023-02-14T06:56:48.547Z,98.53
2023-02-14T06:57:48.539Z,98.53
2023-02-14T06:58:48.555Z,98.63
2023-02-14T06:59:48.532Z,98.63
2023-02-14T07:00:48.497Z,98.63
2023-02-14T07:01:48.581Z,98.43
2023-02-14T07:02:49.097Z,98.53
2023-02-14T07:03:48.468Z,98.53
2023-02-14T07:04:48.467Z,98.43
2023-02-14T07:05:48.439Z,98.43
2023-02-14T07:06:48.442Z,98.43
2023-02-14T07:07:48.433Z,98.43
2023-02-14T07:08:48.410Z,98.53
2023-02-14T07:09:48.419Z,98.43
2023-02-14T07:10:48.388Z,98.53
2023-02-14T07:11:48.380Z,98.43
2023-02-14T07:12:48.373Z,98.32
2023-02-14T07:13:49.540Z,98.32
2023-02-14T07:14:48.356Z,98.32
2023-02-14T07:15:48.384Z,98.38
2023-02-14T07:16:48.330Z,98.27
2023-02-14T07:17:48.311Z,98.27
2023-02-14T07:18:48.303Z,98.17
2023-02-14T07:19:48.321Z,98.17
2023-02-14T07:20:48.281Z,98.38
2023-02-14T07:21:48.274Z,98.27
2023-02-14T07:22:48.266Z,98.17
2023-02-14T07:23:48.250Z,98.17
2023-02-14T07:24:48.376Z,98.07
2023-02-14T07:25:48.222Z,98.17
2023-02-14T07:26:48.233Z,98.07
2023-02-14T07:27:48.211Z,98.07
2023-02-14T07:28:48.201Z,97.96
2023-02-14T07:29:48.242Z,98.02
2023-02-14T07:30:48.371Z,97.81
2023-02-14T07:31:48.280Z,97.81
2023-02-14T07:32:48.155Z,97.61
2023-02-14T07:33:48.140Z,97.50
2023-02-14T07:34:48.155Z,97.40
2023-02-14T07:35:48.201Z,97.40
2023-02-14T07:36:48.114Z,97.25
2023-02-14T07:37:48.102Z,97.04
2023-02-14T07:38:48.094Z,96.94
2023-02-14T07:39:48.110Z,96.94
2023-02-14T07:40:48.083Z,96.94
2023-02-14T07:41:48.061Z,96.73
2023-02-14T07:42:48.054Z,96.62
2023-02-14T07:43:48.034Z,96.52
2023-02-14T07:44:48.050Z,96.48
2023-02-14T07:45:48.003Z,96.17
2023-02-14T07:46:48.003Z,95.96
2023-02-14T07:47:47.991Z,95.86
2023-02-14T07:48:47.980Z,95.86
2023-02-14T07:49:48.021Z,95.86
2023-02-14T07:50:47.982Z,95.75
2023-02-14T07:51:47.951Z,95.65
2023-02-14T07:52:47.945Z,95.65
2023-02-14T07:53:47.921Z,95.50
2023-02-14T07:54:47.934Z,95.19
2023-02-14T07:55:47.901Z,95.19
2023-02-14T07:56:47.904Z,94.98
2023-02-14T07:57:47.961Z,94.98
2023-02-14T07:58:47.871Z,94.78
2023-02-14T07:59:47.862Z,94.78
2023-02-14T08:00:47.844Z,94.73
2023-02-14T08:01:47.879Z,94.84
2023-02-14T08:02:47.835Z,94.63
2023-02-14T08:03:47.811Z,94.42
2023-02-14T08:04:47.821Z,94.21
2023-02-14T08:05:47.793Z,94.21
2023-02-14T08:06:47.789Z,94.11
2023-02-14T08:07:47.788Z,93.96
2023-02-14T08:08:47.778Z,93.85
2023-02-14T08:09:47.757Z,93.85
2023-02-14T08:10:47.743Z,94.06
2023-02-14T08:11:47.731Z,93.85
2023-02-14T08:12:47.712Z,93.54
2023-02-14T08:13:47.722Z,93.44
2023-02-14T08:14:47.698Z,93.44
2023-02-14T08:15:47.710Z,93.33
2023-02-14T08:16:47.663Z,93.50
2023-02-14T08:17:47.656Z,93.40
2023-02-14T08:18:47.645Z,93.08
2023-02-14T08:19:47.651Z,93.19
2023-02-14T08:20:47.620Z,92.78
2023-02-14T08:21:47.624Z,92.88
2023-02-14T08:22:47.620Z,92.78
2023-02-14T08:23:47.718Z,92.68
2023-02-14T08:24:47.590Z,92.68
2023-02-14T08:25:47.569Z,92.57
2023-02-14T08:26:47.561Z,92.36
2023-02-14T08:27:47.547Z,92.43
2023-02-14T08:28:47.539Z,92.32
2023-02-14T08:29:47.636Z,92.43
2023-02-14T08:30:47.533Z,92.11
2023-02-14T08:31:47.658Z,92.01
2023-02-14T08:32:47.529Z,92.22
2023-02-14T08:33:47.490Z,92.01
2023-02-14T08:34:47.479Z,91.80
2023-02-14T08:35:47.463Z,91.70
2023-02-14T08:36:47.463Z,91.70
2023-02-14T08:37:47.437Z,91.70
2023-02-14T08:38:47.451Z,91.91
2023-02-14T08:39:47.421Z,92.01
2023-02-14T08:40:47.408Z,92.32
2023-02-14T08:41:47.401Z,92.32
2023-02-14T08:42:47.381Z,91.97
2023-02-14T08:43:47.389Z,91.35
2023-02-14T08:44:47.371Z,91.35
2023-02-14T08:45:47.361Z,91.24
2023-02-14T08:46:47.345Z,90.93
2023-02-14T08:47:47.363Z,90.83
2023-02-14T08:48:47.310Z,91.03
2023-02-14T08:49:47.319Z,90.89
2023-02-14T08:50:47.311Z,90.26
2023-02-14T08:51:47.285Z,90.37
2023-02-14T08:52:47.273Z,90.26
2023-02-14T08:53:47.261Z,90.58
2023-02-14T08:54:47.243Z,90.47
2023-02-14T08:55:47.249Z,89.71
2023-02-14T08:56:47.236Z,89.71
2023-02-14T08:57:47.252Z,89.81
2023-02-14T08:58:47.240Z,89.92
2023-02-14T08:59:47.251Z,89.71
2023-02-14T09:00:47.268Z,89.86
2023-02-14T09:01:47.274Z,90.06
2023-02-14T09:02:47.173Z,90.23
2023-02-14T09:03:47.181Z,89.81
2023-02-14T09:04:47.155Z,89.81
2023-02-14T09:05:47.142Z,89.61
2023-02-14T09:06:47.174Z,89.09
2023-02-14T09:07:47.116Z,89.15
2023-02-14T09:08:47.125Z,89.15
2023-02-14T09:09:47.103Z,89.15
2023-02-14T09:10:47.138Z,88.28
2023-02-14T09:11:47.075Z,88.07
2023-02-14T09:12:47.054Z,87.97
2023-02-14T09:13:47.050Z,88.07
2023-02-14T09:14:47.094Z,88.18
2023-02-14T09:15:47.024Z,87.66
2023-02-14T09:16:47.193Z,87.56
2023-02-14T09:17:47.038Z,87.00
2023-02-14T09:18:46.985Z,86.69
2023-02-14T09:19:46.998Z,86.07
2023-02-14T09:20:47.002Z,85.76
2023-02-14T09:21:47.048Z,85.62
2023-02-14T09:22:48.741Z,85.41
2023-02-14T09:23:46.946Z,85.62
2023-02-14T09:24:46.939Z,85.52
2023-02-14T09:25:46.934Z,85.31
2023-02-14T09:26:46.905Z,85.31
2023-02-14T09:27:46.899Z,85.21
2023-02-14T09:28:46.909Z,85.21
2023-02-14T09:29:46.896Z,85.72
2023-02-14T09:30:46.856Z,85.21
2023-02-14T09:31:46.926Z,84.89
2023-02-14T09:32:46.835Z,85.06
2023-02-14T09:33:46.835Z,84.86
2023-02-14T09:34:46.840Z,84.03
2023-02-14T09:35:46.809Z,84.23
2023-02-14T09:36:46.803Z,84.55
2023-02-14T09:37:46.796Z,84.34
2023-02-14T09:38:46.781Z,84.55
2023-02-14T09:39:46.778Z,84.03
2023-02-14T09:40:46.747Z,83.99
2023-02-14T09:41:46.743Z,84.20
2023-02-14T09:42:46.728Z,84.81
2023-02-14T09:43:46.718Z,84.61
2023-02-14T09:44:46.721Z,84.41
2023-02-14T09:45:46.760Z,83.89
2023-02-14T09:46:46.686Z,83.89
2023-02-14T09:47:46.684Z,83.58
2023-02-14T09:48:46.683Z,83.27
2023-02-14T09:49:46.820Z,82.61
2023-02-14T09:50:46.639Z,83.03
2023-02-14T09:51:46.634Z,82.10
2023-02-14T09:52:46.629Z,82.30
2023-02-14T09:53:46.619Z,81.89
2023-02-14T09:54:46.610Z,81.48
2023-02-14T09:55:46.595Z,81.99
2023-02-14T09:56:51.273Z,81.37
2023-02-14T09:57:47.569Z,81.48
2023-02-14T09:58:46.561Z,81.58
2023-02-14T09:59:46.550Z,81.27
2023-02-14T10:00:46.628Z,81.44
2023-02-14T10:01:46.597Z,81.09
2023-02-14T10:02:46.509Z,80.47
2023-02-14T10:03:46.509Z,80.16
2023-02-14T10:04:46.496Z,79.86
2023-02-14T10:05:46.501Z,79.86
2023-02-14T10:06:46.488Z,79.65
2023-02-14T10:07:46.462Z,79.65
2023-02-14T10:08:46.444Z,79.96
2023-02-14T10:09:46.452Z,80.37
2023-02-14T10:10:46.430Z,79.75
2023-02-14T10:11:46.466Z,79.30
2023-02-14T10:12:46.434Z,79.00
2023-02-14T10:13:46.398Z,79.61
2023-02-14T10:14:46.603Z,79.16
2023-02-14T10:15:46.363Z,78.75
2023-02-14T10:16:46.384Z,78.55
2023-02-14T10:17:46.346Z,77.79
2023-02-14T10:18:46.333Z,77.79
2023-02-14T10:19:46.338Z,78.00
2023-02-14T10:20:46.315Z,77.69
2023-02-14T10:21:47.954Z,77.24
2023-02-14T10:22:46.297Z,76.83
2023-02-14T10:23:46.314Z,76.83
2023-02-14T10:24:46.284Z,76.11
2023-02-14T10:25:46.255Z,75.97
2023-02-14T10:26:46.246Z,75.87
2023-02-14T10:27:46.233Z,75.21
2023-02-14T10:28:46.237Z,75.21
2023-02-14T10:29:46.295Z,75.01
2023-02-14T10:30:46.311Z,75.21
2023-02-14T10:31:46.293Z,74.87
2023-02-14T10:32:46.178Z,74.60
2023-02-14T10:33:46.172Z,74.08
2023-02-14T10:34:46.230Z,74.15
2023-02-14T10:35:46.187Z,74.87
2023-02-14T10:36:46.193Z,74.02
2023-02-14T10:37:46.163Z,72.99
2023-02-14T10:38:46.127Z,72.89
2023-02-14T10:39:46.124Z,72.75
2023-02-14T10:40:46.101Z,72.48
2023-02-14T10:41:46.092Z,72.48
2023-02-14T10:42:46.075Z,72.27
2023-02-14T10:43:46.062Z,72.65
2023-02-14T10:44:46.062Z,72.24
2023-02-14T10:45:46.089Z,72.03
2023-02-14T10:46:46.045Z,72.03
2023-02-14T10:47:46.055Z,71.62
2023-02-14T10:48:46.016Z,72.20
2023-02-14T10:49:46.004Z,71.69
2023-02-14T10:50:45.986Z,72.00
2023-02-14T10:51:45.974Z,71.80
2023-02-14T10:52:45.962Z,70.97
2023-02-14T10:53:45.956Z,71.18
2023-02-14T10:54:45.946Z,70.56
2023-02-14T10:55:45.948Z,70.94
2023-02-14T10:56:45.925Z,70.64
2023-02-14T10:57:45.905Z,70.19
2023-02-14T10:58:45.903Z,69.89
2023-02-14T10:59:45.900Z,69.57
2023-02-14T11:00:45.884Z,69.47
2023-02-14T11:01:45.959Z,69.27
2023-02-14T11:02:45.940Z,69.57
2023-02-14T11:03:45.944Z,69.47
2023-02-14T11:04:45.854Z,69.78
2023-02-14T11:05:46.708Z,69.75
2023-02-14T11:06:45.814Z,69.13
2023-02-14T11:07:45.815Z,68.93
2023-02-14T11:08:45.797Z,69.13
2023-02-14T11:09:45.784Z,68.62
2023-02-14T11:10:45.769Z,68.73
2023-02-14T11:11:45.768Z,69.44
2023-02-14T11:12:45.758Z,69.54
2023-02-14T11:13:45.742Z,69.13
2023-02-14T11:14:45.730Z,69.03
2023-02-14T11:15:45.710Z,68.83
2023-02-14T11:16:45.754Z,68.21
2023-02-14T11:17:45.708Z,68.32
2023-02-14T11:18:45.686Z,68.11
2023-02-14T11:19:45.682Z,68.73
2023-02-14T11:20:45.660Z,68.62
2023-02-14T11:21:45.665Z,68.83
2023-02-14T11:22:45.639Z,68.21
2023-02-14T11:23:45.630Z,68.41
2023-02-14T11:24:45.635Z,67.80
2023-02-14T11:25:45.604Z,68.21
2023-02-14T11:26:45.605Z,68.21
2023-02-14T11:27:45.588Z,67.90
2023-02-14T11:28:45.582Z,67.87
2023-02-14T11:29:45.581Z,67.77
2023-02-14T11:30:45.621Z,68.49
2023-02-14T11:31:45.617Z,68.46
2023-02-14T11:32:45.536Z,67.84
2023-02-14T11:33:45.510Z,67.64
2023-02-14T11:34:45.527Z,66.82
2023-02-14T11:35:45.507Z,67.23
2023-02-14T11:36:45.516Z,66.61
2023-02-14T11:37:45.520Z,66.72
2023-02-14T11:38:45.468Z,66.72
2023-02-14T11:39:45.451Z,66.41
2023-02-14T11:40:45.453Z,66.17
2023-02-14T11:41:45.432Z,66.07
2023-02-14T11:42:45.609Z,65.77
2023-02-14T11:43:45.434Z,65.84
2023-02-14T11:44:45.433Z,65.73
2023-02-14T11:45:45.468Z,65.33
2023-02-14T11:46:53.115Z,65.33
2023-02-14T11:47:46.405Z,65.33
2023-02-14T11:48:45.374Z,64.81
2023-02-14T11:49:45.348Z,64.40
2023-02-14T11:50:45.345Z,65.02
2023-02-14T11:51:45.375Z,64.40
2023-02-14T11:52:45.398Z,64.51
2023-02-14T11:53:45.520Z,64.30
2023-02-14T11:54:45.298Z,64.40
2023-02-14T11:55:45.279Z,64.40
2023-02-14T11:56:45.280Z,64.20
2023-02-14T11:57:45.258Z,64.20
2023-02-14T11:58:45.269Z,64.27
2023-02-14T11:59:45.254Z,63.86
2023-02-14T12:00:45.233Z,63.86
2023-02-14T12:01:45.212Z,63.56
2023-02-14T12:02:45.263Z,63.96
2023-02-14T12:03:45.252Z,63.76
2023-02-14T12:04:46.795Z,64.07
2023-02-14T12:05:45.174Z,63.66
2023-02-14T12:06:45.165Z,63.56
2023-02-14T12:07:45.145Z,63.96
2023-02-14T12:08:45.159Z,64.27
2023-02-14T12:09:45.147Z,63.45
2023-02-14T12:10:45.138Z,63.83
2023-02-14T12:11:45.112Z,63.32
2023-02-14T12:12:45.099Z,63.32
2023-02-14T12:13:45.133Z,63.60
2023-02-14T12:14:45.108Z,63.12
2023-02-14T12:15:45.116Z,63.73
2023-02-14T12:16:45.061Z,63.29
2023-02-14T12:17:45.052Z,63.19
2023-02-14T12:18:45.053Z,63.29
2023-02-14T12:19:45.036Z,63.16
2023-02-14T12:20:45.022Z,62.76
2023-02-14T12:21:45.003Z,62.78
2023-02-14T12:22:45.003Z,63.09
2023-02-14T12:23:45.015Z,63.32
2023-02-14T12:24:45.008Z,63.40
2023-02-14T12:25:45.070Z,63.19
2023-02-14T12:26:44.948Z,63.09
2023-02-14T12:27:44.965Z,62.96
2023-02-14T12:28:44.926Z,63.16
2023-02-14T12:29:44.937Z,62.85
2023-02-14T12:30:44.931Z,62.55
2023-02-14T12:31:45.021Z,62.55
2023-02-14T12:32:44.887Z,62.35
2023-02-14T12:33:46.871Z,63.16
2023-02-14T12:34:44.874Z,62.65
2023-02-14T12:35:44.855Z,63.23
2023-02-14T12:36:44.835Z,62.55
2023-02-14T12:37:46.976Z,63.23
2023-02-14T12:38:44.828Z,62.62
2023-02-14T12:39:44.934Z,62.62
2023-02-14T12:40:44.797Z,61.71
2023-02-14T12:41:44.804Z,62.65
2023-02-14T12:42:44.775Z,62.96
2023-02-14T12:43:44.758Z,62.55
2023-02-14T12:44:44.763Z,62.96
2023-02-14T12:45:44.759Z,63.03
2023-02-14T12:46:44.738Z,62.32
2023-02-14T12:47:44.720Z,62.29
2023-02-14T12:48:44.700Z,61.37
2023-02-14T12:49:44.713Z,61.88
2023-02-14T12:50:44.703Z,62.21
2023-02-14T12:51:44.674Z,62.21
2023-02-14T12:52:44.672Z,61.98